Terminal Aerodrome Forecast
Issued by NWS

Home | Current Version | Previous Version | Text Only | Print | Product List | Glossary On
Versions: 1 2 3 4 5 6 7 8 9 10 11 12 13 14 15 16 17 18 19 20 21 22 23 24 25
000
FTUS41 KPBZ 221400 AAA
TAFLBE
TAF AMD
KLBE 221405Z 2214/2312 21003KT 5SM BR SCT008 BKN015
      TEMPO 2214/2216 BKN008
     FM221600 VRB03KT 6SM BR BKN020
     FM221800 20005KT P6SM VCSH BKN035
     FM230700 VRB03KT 2SM BR SCT030=

USA.gov is the U.S. government's official web portal to all federal, state and local government web resources and services.